Date,TemperatureHighF,TemperatureAvgF,TemperatureLowF,DewpointHighF,DewpointAvgF,DewpointLowF,HumidityHigh,HumidityAvg,HumidityLow,PressureMaxIn,PressureMinIn,WindSpeedMaxMPH,WindSpeedAvgMPH,GustSpeedMaxMPH,PrecipitationSumIn
2013-1-1,46,44,38,0,0,0,0,0,100,29.81,29.65,0,0,0,0.50
2013-1-2,46,40,33,0,0,0,0,0,100,29.90,29.64,0,0,0,0.31
2013-1-3,41,32,24,0,0,0,0,0,100,29.97,29.85,0,0,0,0.00
2013-1-4,47,34,20,0,0,0,0,0,100,30.02,29.91,0,0,0,0.00
2013-1-5,50,38,21,0,0,0,0,0,100,30.09,29.91,0,0,0,0.00
2013-1-6,52,41,32,0,0,0,0,0,100,29.92,29.75,0,0,0,0.04
2013-1-7,50,36,25,0,0,0,0,0,100,30.11,29.88,0,0,0,0.00
2013-1-8,55,36,23,0,0,0,0,0,100,30.12,30.00,0,0,0,0.00
2013-1-9,57,51,44,0,0,0,0,0,100,30.20,30.14,0,0,0,0.00
2013-1-10,61,50,0,0,0,0,0,0,100,30.30,30.17,0,0,0,0.00
2013-1-11,44,38,0,0,0,0,0,0,100,30.17,29.93,0,0,0,0.09
2013-1-12,64,53,0,0,0,0,0,0,100,29.95,29.87,0,0,0,0.02
2013-1-13,68,60,54,0,0,0,0,0,100,29.91,29.83,0,0,0,0.02
2013-1-14,62,59,51,0,0,0,0,0,100,29.96,29.85,0,0,0,1.69
2013-1-15,51,32,0,0,0,0,0,0,100,30.00,29.85,0,0,0,0.46
2013-1-16,48,38,0,0,0,0,0,0,100,29.85,29.72,0,0,0,1.14
2013-1-17,48,28,0,0,0,0,0,0,100,29.94,29.68,0,0,0,3.05
2013-1-18,38,29,23,0,0,0,0,0,100,30.27,29.92,0,0,0,0.52
2013-1-19,48,33,24,0,0,0,0,0,100,30.24,29.90,0,0,0,0.02
2013-1-20,58,43,31,0,0,0,0,0,100,29.91,29.78,0,0,0,0.00
2013-1-21,55,40,24,0,0,0,0,0,100,29.85,29.65,0,0,0,0.00
2013-1-22,37,30,23,0,0,0,0,0,100,30.02,29.74,0,0,0,0.00
2013-1-23,41,28,16,0,0,0,0,0,100,30.10,29.79,0,0,0,0.00
2013-1-24,36,29,22,0,0,0,0,0,100,30.24,29.72,0,0,0,0.00
2013-1-25,24,21,18,0,0,0,0,0,100,30.25,29.85,0,0,0,0.00
2013-1-26,35,26,20,0,0,0,0,0,100,30.15,29.83,0,0,0,0.19
2013-1-27,42,30,19,0,0,0,0,0,100,30.33,30.14,0,0,0,0.00
2013-1-28,44,36,29,0,0,0,0,0,100,30.22,29.98,0,0,0,0.09
2013-1-29,65,52,0,0,0,0,0,0,100,30.00,29.82,0,0,0,0.00
2013-1-30,67,62,0,0,0,0,0,0,100,29.83,29.20,0,0,0,1.97
2013-1-31,55,40,0,0,0,0,0,0,100,29.76,29.23,0,0,0,0.07
2013-2-1,39,31,20,0,0,0,0,0,100,30.12,29.62,0,0,0,0.00
2013-2-2,40,30,16,0,0,0,0,0,100,30.13,29.79,0,0,0,0.00
2013-2-3,47,37,28,0,0,0,0,0,100,29.79,29.62,0,0,0,0.01
2013-2-4,48,37,22,0,0,0,0,0,100,29.90,29.75,0,0,0,0.00
2013-2-5,58,44,33,0,0,0,0,0,100,29.75,29.66,0,0,0,0.00
2013-2-6,56,44,29,0,0,0,0,0,100,30.04,29.75,0,0,0,0.00
2013-2-7,41,31,0,0,0,0,0,0,100,30.10,29.81,0,0,0,1.65
2013-2-8,55,31,0,0,0,0,0,0,100,29.85,29.62,0,0,0,0.33
2013-2-9,51,40,29,0,0,0,0,0,100,30.11,29.83,0,0,0,0.00
2013-2-10,53,40,29,0,0,0,0,0,100,30.22,29.94,0,0,0,0.17
2013-2-11,54,44,0,0,0,0,0,0,100,29.94,29.72,0,0,0,0.19
2013-2-12,57,48,35,0,0,0,0,0,100,29.87,29.70,0,0,0,0.00
2013-2-13,46,41,0,0,0,0,0,0,100,29.73,29.42,0,0,0,0.61
2013-2-14,52,38,25,0,0,0,0,0,100,29.83,29.62,0,0,0,0.00
2013-2-15,59,43,0,0,0,0,0,0,100,29.86,29.70,0,0,0,0.00
2013-2-16,38,32,28,0,0,0,0,0,100,29.76,29.61,0,0,0,0.11
2013-2-17,36,28,22,0,0,0,0,0,100,30.01,29.71,0,0,0,0.00
2013-2-18,52,36,19,0,0,0,0,0,100,30.13,29.95,0,0,0,0.00
2013-2-19,44,38,31,0,0,0,0,0,100,29.97,29.64,0,0,0,0.46
2013-2-20,52,39,26,0,0,0,0,0,100,29.91,29.76,0,0,0,0.02
2013-2-21,52,40,23,0,0,0,0,0,100,30.03,29.88,0,0,0,0.00
2013-2-22,42,32,29,0,0,0,0,0,100,30.09,29.89,0,0,0,0.63
2013-2-23,43,33,0,0,0,0,0,0,100,29.91,29.60,0,0,0,0.43
2013-2-24,59,46,0,0,0,0,0,0,100,29.82,29.59,0,0,0,0.00
2013-2-25,44,37,32,0,0,0,0,0,100,29.98,29.81,0,0,0,0.00
2013-2-26,37,29,0,0,0,0,0,0,100,29.91,29.38,0,0,0,1.73
2013-2-27,54,38,0,0,0,0,0,0,100,29.57,29.41,0,0,0,0.00
2013-2-28,46,39,27,0,0,0,0,0,100,29.65,29.48,0,0,0,0.00
2013-3-1,45,39,34,0,0,0,0,0,100,29.70,29.61,0,0,0,0.00
2013-3-2,46,35,24,0,0,0,0,0,100,29.70,29.59,0,0,0,0.00
2013-3-3,42,34,27,0,0,0,0,0,100,29.76,29.64,0,0,0,0.00
2013-3-4,52,37,25,0,0,0,0,0,100,29.88,29.74,0,0,0,0.00
2013-3-5,50,40,0,0,0,0,0,0,100,29.83,29.37,0,0,0,0.67
2013-3-6,47,36,28,0,0,0,0,0,100,29.86,29.36,0,0,0,0.30
2013-3-7,50,38,26,0,0,0,0,0,100,30.03,29.85,0,0,0,0.00
2013-3-8,53,39,20,0,0,0,0,0,100,30.08,29.96,0,0,0,0.00
2013-3-9,61,44,25,0,0,0,0,0,100,30.12,30.01,0,0,0,0.00
2013-3-10,66,52,37,0,0,0,0,0,100,30.08,29.96,0,0,0,0.00
2013-3-11,66,52,0,0,0,0,0,0,100,29.98,29.67,0,0,0,0.02
2013-3-12,62,53,0,0,0,0,0,0,100,29.76,29.53,0,0,0,1.76
2013-3-13,53,42,30,0,0,0,0,0,100,29.93,29.75,0,0,0,0.00
2013-3-14,50,38,28,0,0,0,0,0,100,30.02,29.90,0,0,0,0.00
2013-3-15,61,46,29,0,0,0,0,0,100,29.95,29.67,0,0,0,0.00
2013-3-16,76,61,49,0,0,0,0,0,100,29.67,29.45,0,0,0,0.02
2013-3-17,53,45,36,0,0,0,0,0,100,29.94,29.64,0,0,0,0.00
2013-3-18,37,35,33,0,0,0,0,0,100,29.95,29.62,0,0,0,0.52
2013-3-19,63,46,32,0,0,0,0,0,100,29.76,29.60,0,0,0,0.00
2013-4-5,64,55,44,0,0,0,0,0,100,29.82,29.68,0,0,0,0.00
2013-4-6,66,52,36,0,0,0,0,0,100,30.04,29.82,0,0,0,0.00
2013-4-7,70,55,36,0,0,0,0,0,100,30.03,29.88,0,0,0,0.00
2013-4-8,77,62,49,0,0,0,0,0,100,29.95,29.84,0,0,0,0.00
2013-4-9,83,73,53,0,0,0,0,0,100,29.98,29.86,0,0,0,0.00
2013-4-10,85,71,57,0,0,0,0,0,100,29.90,29.75,0,0,0,0.00
2013-4-11,81,67,56,0,0,0,0,0,100,29.78,29.57,0,0,0,0.00
2013-4-12,81,69,0,0,0,0,0,0,100,29.60,29.41,0,0,0,1.99
2013-4-13,75,60,39,0,0,0,0,0,100,29.81,29.60,0,0,0,0.00
2013-4-14,80,64,46,0,0,0,0,0,100,29.89,29.80,0,0,0,0.00
2013-4-15,65,57,52,0,0,0,0,0,100,30.00,29.82,0,0,0,0.39
2013-4-16,79,64,52,0,0,0,0,0,100,30.09,29.98,0,0,0,0.00
2013-4-17,83,67,58,0,0,0,0,0,100,30.01,29.91,0,0,0,0.00
2013-4-18,80,68,0,0,0,0,0,0,100,29.98,29.81,0,0,0,0.00
2013-4-19,73,64,0,0,0,0,0,0,100,29.81,29.52,0,0,0,0.00
2013-4-20,65,52,38,0,0,0,0,0,100,30.05,29.66,0,0,0,0.00
2013-4-21,60,50,38,0,0,0,0,0,100,30.26,30.05,0,0,0,0.00
2013-4-22,62,49,32,0,0,0,0,0,100,30.23,30.04,0,0,0,0.00
2013-4-23,73,55,42,0,0,0,0,0,100,30.06,29.89,0,0,0,0.00
2013-4-24,72,59,49,0,0,0,0,0,100,29.91,29.76,0,0,0,0.00
2013-4-25,75,58,45,0,0,0,0,0,100,30.07,29.80,0,0,0,0.00
2013-4-26,73,57,38,0,0,0,0,0,100,30.22,30.07,0,0,0,0.00
2013-4-27,72,58,51,0,0,0,0,0,100,30.14,30.04,0,0,0,0.00
2013-4-28,55,52,0,0,0,0,0,0,100,30.04,29.84,0,0,0,0.00
2013-4-29,72,58,52,0,0,0,0,0,100,29.85,29.76,0,0,0,0.00
2013-4-30,68,58,52,0,0,0,0,0,100,29.99,29.81,0,0,0,0.07
2013-5-1,63,56,0,0,0,0,0,0,100,30.11,29.97,0,0,0,0.00
2013-5-2,62,55,50,0,0,0,0,0,100,30.12,30.05,0,0,0,0.00
2013-5-3,68,54,46,0,0,0,0,0,100,30.05,29.95,0,0,0,0.00
2013-5-4,59,49,43,0,0,0,0,0,100,29.98,29.86,0,0,0,0.00
2013-5-5,53,49,45,0,0,0,0,0,100,29.89,29.75,0,0,0,0.02
2013-5-6,66,58,53,0,0,0,0,0,100,29.76,29.62,0,0,0,0.00
2013-5-7,68,54,0,0,0,0,0,0,100,29.74,29.65,0,0,0,0.19
2013-5-8,66,48,0,0,0,0,0,0,100,29.80,29.71,0,0,0,0.39
2013-5-9,83,59,0,0,0,0,0,0,100,29.87,29.78,0,0,0,0.02
2013-5-10,84,68,51,0,0,0,0,0,100,29.87,29.72,0,0,0,0.00
2013-5-11,80,66,59,0,0,0,0,0,100,29.75,29.60,0,0,0,0.61
2013-5-12,69,60,47,0,0,0,0,0,100,29.83,29.63,0,0,0,0.04
2013-5-13,67,52,35,0,0,0,0,0,100,29.97,29.83,0,0,0,0.00
2013-5-14,73,56,33,0,0,0,0,0,100,30.04,29.84,0,0,0,0.00
2013-5-15,88,70,52,0,0,0,0,0,100,29.85,29.71,0,0,0,0.00
2013-5-16,85,71,55,0,0,0,0,0,100,29.80,29.72,0,0,0,0.00
2013-5-17,90,73,55,0,0,0,0,0,100,29.90,29.79,0,0,0,0.00
2013-5-18,75,66,60,0,0,0,0,0,100,29.98,29.88,0,0,0,0.22
2013-5-19,77,67,0,0,0,0,0,0,100,29.94,29.85,0,0,0,0.06
2013-5-20,80,69,64,0,0,0,0,0,100,29.92,29.83,0,0,0,1.06
2013-5-21,86,73,64,0,0,0,0,0,100,29.86,29.74,0,0,0,0.02
2013-5-22,83,72,63,0,0,0,0,0,100,29.83,29.71,0,0,0,1.48
2013-5-23,79,62,0,0,0,0,0,0,100,29.77,29.63,0,0,0,0.47
2013-5-24,71,61,48,0,0,0,0,0,100,30.00,29.65,0,0,0,0.03
2013-5-25,76,58,38,0,0,0,0,0,100,30.07,29.93,0,0,0,0.00
2013-5-26,82,63,50,0,0,0,0,0,100,30.07,29.96,0,0,0,0.00
2013-5-27,84,65,47,0,0,0,0,0,100,30.08,29.94,0,0,0,0.00
2013-5-28,86,71,60,0,0,0,0,0,100,30.03,29.94,0,0,0,0.00
2013-5-29,89,72,60,0,0,0,0,0,100,30.04,29.96,0,0,0,0.00
2013-5-30,90,73,62,0,0,0,0,0,100,30.08,29.98,0,0,0,0.00
2013-5-31,89,73,0,0,0,0,0,0,100,30.03,29.91,0,0,0,0.00
2013-6-1,90,75,0,0,0,0,0,0,100,29.93,29.82,0,0,0,0.00
2013-6-2,80,70,66,0,0,0,0,0,100,29.85,29.72,0,0,0,1.34
2013-6-3,82,70,65,0,0,0,0,0,100,29.78,29.66,0,0,0,1.82
2013-6-4,78,66,61,0,0,0,0,0,100,29.91,29.77,0,0,0,0.02
2013-6-5,79,67,60,0,0,0,0,0,100,29.94,29.82,0,0,0,0.04
2013-6-6,72,67,63,0,0,0,0,0,100,29.83,29.62,0,0,0,2.21
2013-6-7,76,68,66,0,0,0,0,0,100,29.65,29.44,0,0,0,0.93
2013-6-8,84,71,0,0,0,0,0,0,100,29.90,29.63,0,0,0,1.04
2013-6-9,88,74,63,0,0,0,0,0,100,29.96,29.86,0,0,0,0.03
2013-6-10,81,72,67,0,0,0,0,0,100,29.90,29.67,0,0,0,0.84
2013-6-11,90,73,66,0,0,0,0,0,100,29.79,29.71,0,0,0,0.04
2013-6-12,95,76,60,0,0,0,0,0,100,29.80,29.69,0,0,0,0.00
2013-6-13,93,76,65,0,0,0,0,0,100,29.70,29.44,0,0,0,0.28
2013-6-14,87,70,56,0,0,0,0,0,100,29.84,29.58,0,0,0,0.00
2013-6-15,88,71,54,0,0,0,0,0,100,29.94,29.84,0,0,0,0.00
2013-6-16,88,73,62,0,0,0,0,0,100,29.93,29.82,0,0,0,0.00
2013-6-17,87,74,67,0,0,0,0,0,100,29.85,29.75,0,0,0,0.28
2013-6-18,81,71,67,0,0,0,0,0,100,29.78,29.61,0,0,0,0.18
2013-6-19,85,72,60,0,0,0,0,0,100,29.93,29.71,0,0,0,0.02
2013-6-20,86,70,0,0,0,0,0,0,100,30.06,29.93,0,0,0,0.00
2013-6-21,85,72,56,0,0,0,0,0,100,30.08,30.00,0,0,0,0.00
2013-6-22,85,70,58,0,0,0,0,0,100,30.04,29.93,0,0,0,0.00
2013-6-23,92,75,0,0,0,0,0,0,100,30.02,29.93,0,0,0,0.00
2013-6-24,87,76,68,0,0,0,0,0,100,30.02,29.90,0,0,0,0.11
2013-6-25,94,76,0,0,0,0,0,0,100,29.94,29.81,0,0,0,0.10
2013-6-26,92,74,66,0,0,0,0,0,100,29.85,29.72,0,0,0,1.39
2013-6-27,85,75,0,0,0,0,0,0,100,29.76,29.54,0,0,0,0.00
2013-6-28,89,77,68,0,0,0,0,0,100,29.59,29.42,0,0,0,0.41
2013-6-29,88,75,0,0,0,0,0,0,100,29.54,29.43,0,0,0,0.03
2013-6-30,88,74,67,0,0,0,0,0,100,29.67,29.52,0,0,0,0.38
2013-7-1,86,74,67,0,0,0,0,0,100,29.80,29.65,0,0,0,0.20
2013-7-2,80,72,0,0,0,0,0,0,100,29.98,29.79,0,0,0,0.24
2013-7-3,84,74,70,0,0,0,0,0,100,30.04,29.94,0,0,0,2.01
2013-7-4,88,76,0,0,0,0,0,0,100,30.06,29.98,0,0,0,0.20
2013-7-5,87,76,70,0,0,0,0,0,100,30.07,29.99,0,0,0,0.06
2013-7-6,90,76,68,0,0,0,0,0,100,30.06,29.93,0,0,0,0.28
2013-7-7,86,76,69,0,0,0,0,0,100,30.00,29.88,0,0,0,0.61
2013-7-8,86,73,68,0,0,0,0,0,100,30.00,29.93,0,0,0,0.32
2013-7-14,74,73,71,0,0,0,0,0,100,30.11,30.08,0,0,0,0.00
2013-7-15,95,79,65,0,0,0,0,0,100,30.15,30.07,0,0,0,0.00
2013-7-16,101,80,0,0,0,0,0,0,100,30.11,30.02,0,0,0,0.02
2013-7-17,98,81,0,0,0,0,0,0,100,30.06,29.95,0,0,0,0.00
2013-7-18,99,84,0,0,0,0,0,0,100,29.97,29.86,0,0,0,0.00
2013-7-19,93,80,72,0,0,0,0,0,100,29.92,29.80,0,0,0,0.00
2013-7-20,89,76,0,0,0,0,0,0,100,29.85,29.74,0,0,0,0.00
2013-7-21,91,74,0,0,0,0,0,0,100,29.82,29.75,0,0,0,1.30
2013-7-22,88,75,0,0,0,0,0,0,100,29.78,29.65,0,0,0,0.00
2013-7-23,94,79,69,0,0,0,0,0,100,29.67,29.56,0,0,0,0.00
2013-7-24,95,75,0,0,0,0,0,0,100,29.70,29.57,0,0,0,0.00
2013-7-25,86,73,63,0,0,0,0,0,100,29.86,29.67,0,0,0,0.00
2013-7-26,93,76,62,0,0,0,0,0,100,29.93,29.83,0,0,0,0.00
2013-7-27,73,69,66,0,0,0,0,0,100,29.86,29.75,0,0,0,2.40
2013-7-28,87,74,66,0,0,0,0,0,100,29.81,29.74,0,0,0,0.00
2013-7-29,92,74,0,0,0,0,0,0,100,29.98,29.81,0,0,0,0.02
2013-7-30,92,74,0,0,0,0,0,0,100,30.05,29.96,0,0,0,0.00
2013-7-31,85,73,67,0,0,0,0,0,100,29.97,29.81,0,0,0,0.18
2013-8-1,90,76,69,0,0,0,0,0,100,29.81,29.69,0,0,0,0.04
2013-8-2,92,76,0,0,0,0,0,0,100,29.85,29.75,0,0,0,0.00
2013-8-3,91,77,68,0,0,0,0,0,100,29.84,29.74,0,0,0,0.00
2013-8-4,89,77,68,0,0,0,0,0,100,29.85,29.75,0,0,0,0.00
2013-8-5,87,72,0,0,0,0,0,0,100,29.90,29.81,0,0,0,0.00
2013-8-6,77,70,62,0,0,0,0,0,100,29.88,29.81,0,0,0,1.32
2013-8-7,84,74,67,0,0,0,0,0,100,29.91,29.84,0,0,0,0.03
2013-8-8,85,75,69,0,0,0,0,0,100,29.89,29.82,0,0,0,0.19
2013-8-9,89,77,71,0,0,0,0,0,100,29.87,29.81,0,0,0,0.07
2013-8-10,91,73,70,0,0,0,0,0,100,29.92,29.85,0,0,0,0.99
2013-8-11,90,77,68,0,0,0,0,0,100,29.94,29.84,0,0,0,0.00
2013-8-12,94,79,69,0,0,0,0,0,100,29.88,29.77,0,0,0,1.04
2013-8-13,85,73,68,0,0,0,0,0,100,29.78,29.63,0,0,0,1.00
2013-8-14,72,67,65,0,0,0,0,0,100,29.81,29.68,0,0,0,0.02
2013-8-15,82,67,56,0,0,0,0,0,100,29.98,29.89,0,0,0,0.00
2013-8-16,72,62,54,0,0,0,0,0,100,29.98,29.91,0,0,0,0.00
2013-8-17,64,60,56,0,0,0,0,0,100,30.01,29.95,0,0,0,2.19
2013-8-18,77,66,62,0,0,0,0,0,100,30.03,29.93,0,0,0,0.50
2013-8-19,77,68,63,0,0,0,0,0,100,30.00,29.91,0,0,0,0.80
2013-8-20,85,72,0,0,0,0,0,0,100,30.01,29.92,0,0,0,0.03
2013-8-21,84,74,66,0,0,0,0,0,100,30.04,29.92,0,0,0,0.32
2013-8-22,89,75,68,0,0,0,0,0,100,29.96,29.82,0,0,0,0.00
2013-8-23,84,73,62,0,0,0,0,0,100,29.92,29.77,0,0,0,0.08
2013-8-24,85,71,58,0,0,0,0,0,100,30.11,29.91,0,0,0,0.00
2013-8-25,86,69,56,0,0,0,0,0,100,30.20,30.10,0,0,0,0.00
2013-8-26,87,69,52,0,0,0,0,0,100,30.13,29.93,0,0,0,0.00
2013-8-27,89,75,63,0,0,0,0,0,100,29.93,29.79,0,0,0,0.00
2013-8-28,85,76,66,0,0,0,0,0,100,29.82,29.71,0,0,0,0.00
2013-8-29,90,78,69,0,0,0,0,0,100,29.83,29.69,0,0,0,0.00
2013-8-30,90,76,64,0,0,0,0,0,100,29.89,29.76,0,0,0,0.00
2013-8-31,89,73,66,0,0,0,0,0,100,29.78,29.70,0,0,0,0.07
2013-9-1,87,72,66,0,0,0,0,0,100,29.72,29.62,0,0,0,1.91
2013-9-2,86,74,66,0,0,0,0,0,100,29.73,29.63,0,0,0,0.02
2013-9-3,92,78,66,0,0,0,0,0,100,29.79,29.63,0,0,0,0.00
2013-9-4,87,72,0,0,0,0,0,0,100,29.91,29.79,0,0,0,0.00
2013-9-5,88,73,60,0,0,0,0,0,100,29.93,29.86,0,0,0,0.00
2013-9-6,82,71,60,0,0,0,0,0,100,30.02,29.91,0,0,0,0.00
2013-9-7,82,68,56,0,0,0,0,0,100,29.95,29.79,0,0,0,0.00
2013-9-8,92,75,62,0,0,0,0,0,100,29.81,29.75,0,0,0,0.00
2013-9-9,90,75,64,0,0,0,0,0,100,29.97,29.81,0,0,0,0.00
2013-9-10,90,76,66,0,0,0,0,0,100,30.05,29.96,0,0,0,0.00
2013-9-11,93,76,0,0,0,0,0,0,100,30.02,29.88,0,0,0,0.00
2013-9-12,90,74,67,0,0,0,0,0,100,29.89,29.65,0,0,0,2.03
2013-9-13,82,71,60,0,0,0,0,0,100,29.74,29.60,0,0,0,0.00
2013-9-14,77,64,52,0,0,0,0,0,100,29.94,29.74,0,0,0,0.00
2013-9-15,84,65,48,0,0,0,0,0,100,30.04,29.93,0,0,0,0.00
2013-9-16,87,70,58,0,0,0,0,0,100,30.01,29.88,0,0,0,0.00
2013-9-17,79,64,0,0,0,0,0,0,100,30.14,30.01,0,0,0,0.00
2013-9-18,77,62,51,0,0,0,0,0,100,30.12,29.98,0,0,0,0.00
2013-9-19,76,65,54,0,0,0,0,0,100,30.00,29.88,0,0,0,0.00
2013-9-20,86,69,0,0,0,0,0,0,100,29.89,29.75,0,0,0,0.00
2013-9-21,74,67,62,0,0,0,0,0,100,29.76,29.53,0,0,0,1.67
2013-9-22,77,64,0,0,0,0,0,0,100,29.72,29.54,0,0,0,0.02
2013-9-23,78,63,52,0,0,0,0,0,100,29.86,29.71,0,0,0,0.00
2013-9-24,80,64,52,0,0,0,0,0,100,29.88,29.74,0,0,0,0.00
2013-9-25,70,60,51,0,0,0,0,0,100,29.75,29.68,0,0,0,0.00
2013-9-26,75,63,0,0,0,0,0,0,100,29.85,29.69,0,0,0,0.02
2013-9-27,79,62,50,0,0,0,0,0,100,29.98,29.84,0,0,0,0.00
2013-9-28,72,59,0,0,0,0,0,0,100,30.06,29.96,0,0,0,0.00
2013-9-29,77,59,0,0,0,0,0,0,100,29.97,29.83,0,0,0,0.00
2013-9-30,80,62,49,0,0,0,0,0,100,29.88,29.79,0,0,0,0.00
2013-10-1,84,67,54,0,0,0,0,0,100,29.91,29.83,0,0,0,0.00
2013-10-2,88,68,0,0,0,0,0,0,100,29.94,29.85,0,0,0,0.00
2013-10-3,90,70,57,0,0,0,0,0,100,29.93,29.85,0,0,0,0.00
2013-10-4,90,71,58,0,0,0,0,0,100,29.94,29.86,0,0,0,0.00
2013-10-5,94,74,59,0,0,0,0,0,100,29.92,29.83,0,0,0,0.00
2013-10-6,84,37,0,0,0,0,0,0,100,29.85,29.71,0,0,0,0.00
2013-10-7,0,0,0,0,0,0,0,0,100,29.81,29.61,0,0,0,0.00
2013-10-8,0,0,0,0,0,0,0,0,100,30.00,29.81,0,0,0,0.00
2013-10-9,0,0,0,0,0,0,0,0,100,30.00,29.91,0,0,0,0.00
2013-10-10,0,0,0,0,0,0,0,0,100,29.91,29.74,0,0,0,0.00
2013-10-11,0,0,0,0,0,0,0,0,100,29.75,29.72,0,0,0,0.00
2013-10-18,0,0,0,0,0,0,0,0,100,29.77,29.75,0,0,0,0.00
2013-10-19,0,0,0,0,0,0,0,0,100,29.75,29.62,0,0,0,0.00
2013-10-20,0,0,0,0,0,0,0,0,100,29.87,29.70,0,0,0,0.00
2013-10-31,0,0,0,0,0,0,0,0,100,29.75,29.63,0,0,0,0.00
2013-11-1,0,0,0,0,0,0,0,0,100,29.64,29.49,0,0,0,0.00
2013-12-7,0,0,0,0,0,0,0,0,100,30.21,30.19,0,0,0,0.00
2013-12-8,0,0,0,0,0,0,0,0,100,30.22,30.03,0,0,0,0.00
2013-12-9,0,0,0,0,0,0,0,0,100,30.04,29.82,0,0,0,0.00
2013-12-10,0,0,0,0,0,0,0,0,100,30.06,29.70,0,0,0,0.00
2013-12-11,0,0,0,0,0,0,0,0,100,30.20,30.04,0,0,0,0.00
2013-12-12,0,0,0,0,0,0,0,0,100,30.17,30.04,0,0,0,0.00
2013-12-13,0,0,0,0,0,0,0,0,100,30.12,30.08,0,0,0,0.00
2013-12-18,37,34,31,17,14,0,51,42,40,30.27,30.25,3,0,3,0.00
2013-12-19,63,46,31,29,23,14,57,41,27,30.32,30.20,15,2,16,0.00
2013-12-20,64,53,42,49,38,26,78,58,43,30.22,30.09,18,3,18,0.00
2013-12-21,70,60,50,61,53,46,89,80,66,30.12,29.97,19,3,19,0.00
2013-12-22,70,65,59,65,60,56,91,86,74,30.04,29.93,20,4,20,1.37
2013-12-23,63,55,39,60,51,31,90,85,69,30.16,29.95,14,3,14,0.97
2013-12-24,44,35,25,32,22,11,77,60,41,30.47,30.14,17,2,17,0.00
2013-12-25,39,27,19,15,11,8,67,52,33,30.56,30.39,8,1,8,0.00
2013-12-26,50,34,23,28,18,10,65,54,39,30.39,30.26,11,1,11,0.00
2013-12-27,52,37,23,24,19,16,80,52,31,30.48,30.37,6,0,6,0.00
2013-12-28,55,41,27,38,26,17,88,58,33,30.41,30.15,7,1,9,0.06
2013-12-29,55,44,40,48,39,35,90,84,70,30.16,29.72,11,2,11,0.91
2013-12-30,51,42,35,41,34,30,86,74,63,30.13,29.92,8,1,8,0.00
2013-12-31,49,38,30,33,26,19,89,63,37,30.36,30.11,11,1,13,0.00
2014-1-1,50,37,28,28,23,18,77,58,38,30.40,30.14,9,1,9,0.00
2014-1-2,43,38,34,38,32,25,90,79,66,30.14,29.62,15,1,15,0.37